sensor_id;sensor_type;location;lat;lon;timestamp;P1;durP1;ratioP1;P2;durP2;ratioP2
2474;SDS011;1248;48.694;10.160;2023-07-31T00:01:56;9.30;;;2.77;;
2474;SDS011;1248;48.694;10.160;2023-07-31T00:04:23;5.17;;;2.50;;
2474;SDS011;1248;48.694;10.160;2023-07-31T00:06:50;5.13;;;2.40;;
2474;SDS011;1248;48.694;10.160;2023-07-31T00:09:17;4.70;;;2.90;;
2474;SDS011;1248;48.694;10.160;2023-07-31T00:11:45;8.30;;;3.07;;
2474;SDS011;1248;48.694;10.160;2023-07-31T00:14:13;5.33;;;2.13;;
2474;SDS011;1248;48.694;10.160;2023-07-31T00:16:40;5.90;;;2.80;;
2474;SDS011;1248;48.694;10.160;2023-07-31T00:19:07;5.03;;;2.43;;
2474;SDS011;1248;48.694;10.160;2023-07-31T00:21:34;7.37;;;2.80;;
2474;SDS011;1248;48.694;10.160;2023-07-31T00:24:01;9.30;;;2.90;;
2474;SDS011;1248;48.694;10.160;2023-07-31T00:26:28;6.00;;;2.23;;
2474;SDS011;1248;48.694;10.160;2023-07-31T00:28:55;4.33;;;3.93;;
2474;SDS011;1248;48.694;10.160;2023-07-31T00:31:24;2.83;;;2.23;;
2474;SDS011;1248;48.694;10.160;2023-07-31T00:33:51;4.93;;;2.53;;
2474;SDS011;1248;48.694;10.160;2023-07-31T00:36:18;3.93;;;2.43;;
2474;SDS011;1248;48.694;10.160;2023-07-31T00:38:45;3.03;;;2.37;;
2474;SDS011;1248;48.694;10.160;2023-07-31T00:41:12;5.30;;;3.33;;
2474;SDS011;1248;48.694;10.160;2023-07-31T00:43:39;7.17;;;2.80;;
2474;SDS011;1248;48.694;10.160;2023-07-31T00:46:06;4.50;;;2.73;;
2474;SDS011;1248;48.694;10.160;2023-07-31T00:48:35;3.30;;;2.33;;
2474;SDS011;1248;48.694;10.160;2023-07-31T00:51:02;2.80;;;2.00;;
2474;SDS011;1248;48.694;10.160;2023-07-31T00:53:29;2.90;;;2.47;;
2474;SDS011;1248;48.694;10.160;2023-07-31T00:55:56;3.73;;;2.70;;
2474;SDS011;1248;48.694;10.160;2023-07-31T00:58:24;3.70;;;2.73;;
2474;SDS011;1248;48.694;10.160;2023-07-31T01:00:51;3.90;;;2.47;;
2474;SDS011;1248;48.694;10.160;2023-07-31T01:03:18;5.80;;;2.93;;
2474;SDS011;1248;48.694;10.160;2023-07-31T01:05:49;5.50;;;2.33;;
2474;SDS011;1248;48.694;10.160;2023-07-31T01:08:24;5.70;;;2.63;;
2474;SDS011;1248;48.694;10.160;2023-07-31T01:10:56;3.30;;;2.53;;
2474;SDS011;1248;48.694;10.160;2023-07-31T01:13:27;2.43;;;2.23;;
2474;SDS011;1248;48.694;10.160;2023-07-31T01:15:55;8.60;;;2.87;;
2474;SDS011;1248;48.694;10.160;2023-07-31T01:18:22;7.37;;;2.60;;
2474;SDS011;1248;48.694;10.160;2023-07-31T01:20:53;4.00;;;2.83;;
2474;SDS011;1248;48.694;10.160;2023-07-31T01:23:33;2.50;;;2.30;;
2474;SDS011;1248;48.694;10.160;2023-07-31T01:26:05;3.43;;;3.00;;
2474;SDS011;1248;48.694;10.160;2023-07-31T01:28:38;5.00;;;2.70;;
2474;SDS011;1248;48.694;10.160;2023-07-31T01:31:10;5.80;;;2.97;;
2474;SDS011;1248;48.694;10.160;2023-07-31T01:33:38;5.67;;;3.13;;
2474;SDS011;1248;48.694;10.160;2023-07-31T01:36:06;7.97;;;2.40;;
2474;SDS011;1248;48.694;10.160;2023-07-31T01:38:33;4.53;;;2.67;;
2474;SDS011;1248;48.694;10.160;2023-07-31T01:41:00;3.40;;;2.60;;
2474;SDS011;1248;48.694;10.160;2023-07-31T01:43:28;3.80;;;2.43;;
2474;SDS011;1248;48.694;10.160;2023-07-31T01:45:56;4.60;;;2.70;;
2474;SDS011;1248;48.694;10.160;2023-07-31T01:48:23;4.43;;;2.60;;
2474;SDS011;1248;48.694;10.160;2023-07-31T01:50:50;3.03;;;2.73;;
2474;SDS011;1248;48.694;10.160;2023-07-31T01:53:17;4.70;;;3.10;;
2474;SDS011;1248;48.694;10.160;2023-07-31T01:55:44;7.03;;;3.23;;
2474;SDS011;1248;48.694;10.160;2023-07-31T01:58:11;5.20;;;2.73;;
2474;SDS011;1248;48.694;10.160;2023-07-31T02:00:39;3.10;;;2.67;;
2474;SDS011;1248;48.694;10.160;2023-07-31T02:03:06;5.10;;;3.13;;
2474;SDS011;1248;48.694;10.160;2023-07-31T02:05:33;5.83;;;2.97;;
2474;SDS011;1248;48.694;10.160;2023-07-31T02:08:00;4.87;;;3.10;;
2474;SDS011;1248;48.694;10.160;2023-07-31T02:10:28;3.40;;;2.93;;
2474;SDS011;1248;48.694;10.160;2023-07-31T02:12:55;6.90;;;3.50;;
2474;SDS011;1248;48.694;10.160;2023-07-31T02:15:23;13.93;;;2.77;;
2474;SDS011;1248;48.694;10.160;2023-07-31T02:17:51;8.27;;;2.70;;
2474;SDS011;1248;48.694;10.160;2023-07-31T02:20:18;7.23;;;2.43;;
2474;SDS011;1248;48.694;10.160;2023-07-31T02:22:45;3.57;;;2.37;;
2474;SDS011;1248;48.694;10.160;2023-07-31T02:25:12;4.30;;;3.00;;
2474;SDS011;1248;48.694;10.160;2023-07-31T02:27:40;2.87;;;2.67;;
2474;SDS011;1248;48.694;10.160;2023-07-31T02:30:07;4.20;;;3.77;;
2474;SDS011;1248;48.694;10.160;2023-07-31T02:32:35;4.73;;;2.90;;
2474;SDS011;1248;48.694;10.160;2023-07-31T02:35:04;7.00;;;3.20;;
2474;SDS011;1248;48.694;10.160;2023-07-31T02:37:31;4.17;;;3.23;;
2474;SDS011;1248;48.694;10.160;2023-07-31T02:39:58;3.30;;;3.00;;
2474;SDS011;1248;48.694;10.160;2023-07-31T02:42:25;5.03;;;3.27;;
2474;SDS011;1248;48.694;10.160;2023-07-31T02:44:52;3.73;;;3.07;;
2474;SDS011;1248;48.694;10.160;2023-07-31T02:47:21;6.20;;;2.90;;
2474;SDS011;1248;48.694;10.160;2023-07-31T02:49:48;6.97;;;3.10;;
2474;SDS011;1248;48.694;10.160;2023-07-31T02:52:17;3.43;;;2.70;;
2474;SDS011;1248;48.694;10.160;2023-07-31T02:54:44;3.83;;;2.97;;
2474;SDS011;1248;48.694;10.160;2023-07-31T02:57:11;4.90;;;3.67;;
2474;SDS011;1248;48.694;10.160;2023-07-31T02:59:38;4.03;;;2.90;;
2474;SDS011;1248;48.694;10.160;2023-07-31T03:02:05;4.17;;;3.00;;
2474;SDS011;1248;48.694;10.160;2023-07-31T03:04:32;5.50;;;3.60;;
2474;SDS011;1248;48.694;10.160;2023-07-31T03:06:59;6.00;;;3.20;;
2474;SDS011;1248;48.694;10.160;2023-07-31T03:09:27;3.87;;;2.83;;
2474;SDS011;1248;48.694;10.160;2023-07-31T03:11:54;7.93;;;2.70;;
2474;SDS011;1248;48.694;10.160;2023-07-31T03:14:21;3.83;;;2.50;;
2474;SDS011;1248;48.694;10.160;2023-07-31T03:16:49;4.80;;;3.00;;
2474;SDS011;1248;48.694;10.160;2023-07-31T03:19:16;5.37;;;3.07;;
2474;SDS011;1248;48.694;10.160;2023-07-31T03:21:43;3.50;;;2.87;;
2474;SDS011;1248;48.694;10.160;2023-07-31T03:24:10;6.63;;;3.03;;
2474;SDS011;1248;48.694;10.160;2023-07-31T03:26:39;5.10;;;2.73;;
2474;SDS011;1248;48.694;10.160;2023-07-31T03:29:07;6.67;;;3.40;;
2474;SDS011;1248;48.694;10.160;2023-07-31T03:31:34;8.37;;;3.13;;
2474;SDS011;1248;48.694;10.160;2023-07-31T03:34:01;5.87;;;3.17;;
2474;SDS011;1248;48.694;10.160;2023-07-31T03:36:28;2.87;;;2.67;;
2474;SDS011;1248;48.694;10.160;2023-07-31T03:38:55;4.57;;;2.83;;
2474;SDS011;1248;48.694;10.160;2023-07-31T03:41:22;8.83;;;2.90;;
2474;SDS011;1248;48.694;10.160;2023-07-31T03:43:50;3.07;;;2.80;;
2474;SDS011;1248;48.694;10.160;2023-07-31T03:46:18;5.23;;;2.87;;
2474;SDS011;1248;48.694;10.160;2023-07-31T03:48:45;8.90;;;2.60;;
2474;SDS011;1248;48.694;10.160;2023-07-31T03:51:12;3.60;;;3.20;;
2474;SDS011;1248;48.694;10.160;2023-07-31T03:53:39;6.53;;;3.00;;
2474;SDS011;1248;48.694;10.160;2023-07-31T03:56:06;4.20;;;2.90;;
2474;SDS011;1248;48.694;10.160;2023-07-31T03:58:33;6.97;;;3.33;;
2474;SDS011;1248;48.694;10.160;2023-07-31T04:01:02;6.50;;;3.40;;
2474;SDS011;1248;48.694;10.160;2023-07-31T04:03:29;8.80;;;3.30;;
2474;SDS011;1248;48.694;10.160;2023-07-31T04:05:56;5.13;;;3.37;;
2474;SDS011;1248;48.694;10.160;2023-07-31T04:08:23;3.63;;;3.00;;
2474;SDS011;1248;48.694;10.160;2023-07-31T04:10:50;4.60;;;3.10;;
2474;SDS011;1248;48.694;10.160;2023-07-31T04:13:17;4.10;;;2.73;;
2474;SDS011;1248;48.694;10.160;2023-07-31T04:15:47;7.27;;;3.20;;
2474;SDS011;1248;48.694;10.160;2023-07-31T04:18:16;5.43;;;3.37;;
2474;SDS011;1248;48.694;10.160;2023-07-31T04:20:44;4.80;;;3.13;;
2474;SDS011;1248;48.694;10.160;2023-07-31T04:23:11;9.00;;;3.30;;
2474;SDS011;1248;48.694;10.160;2023-07-31T04:25:38;4.23;;;3.33;;
2474;SDS011;1248;48.694;10.160;2023-07-31T04:28:05;5.13;;;3.23;;
2474;SDS011;1248;48.694;10.160;2023-07-31T04:30:33;4.87;;;3.23;;
2474;SDS011;1248;48.694;10.160;2023-07-31T04:33:00;5.40;;;3.60;;
2474;SDS011;1248;48.694;10.160;2023-07-31T04:35:28;9.90;;;4.17;;
2474;SDS011;1248;48.694;10.160;2023-07-31T04:37:55;10.10;;;5.80;;
2474;SDS011;1248;48.694;10.160;2023-07-31T04:40:22;14.40;;;5.00;;
2474;SDS011;1248;48.694;10.160;2023-07-31T04:42:50;16.93;;;4.90;;
2474;SDS011;1248;48.694;10.160;2023-07-31T04:45:17;12.10;;;4.73;;
2474;SDS011;1248;48.694;10.160;2023-07-31T04:47:44;11.53;;;6.80;;
2474;SDS011;1248;48.694;10.160;2023-07-31T04:50:11;13.43;;;6.63;;
2474;SDS011;1248;48.694;10.160;2023-07-31T04:52:39;13.30;;;5.20;;
2474;SDS011;1248;48.694;10.160;2023-07-31T04:55:06;9.80;;;5.20;;
2474;SDS011;1248;48.694;10.160;2023-07-31T04:57:34;7.37;;;4.60;;
2474;SDS011;1248;48.694;10.160;2023-07-31T05:00:01;5.33;;;4.03;;
2474;SDS011;1248;48.694;10.160;2023-07-31T05:02:29;7.33;;;4.33;;
2474;SDS011;1248;48.694;10.160;2023-07-31T05:04:56;6.13;;;3.80;;
2474;SDS011;1248;48.694;10.160;2023-07-31T05:07:23;5.70;;;4.00;;
2474;SDS011;1248;48.694;10.160;2023-07-31T05:09:51;7.33;;;4.73;;
2474;SDS011;1248;48.694;10.160;2023-07-31T05:12:18;8.70;;;3.97;;
2474;SDS011;1248;48.694;10.160;2023-07-31T05:14:45;6.60;;;4.10;;
2474;SDS011;1248;48.694;10.160;2023-07-31T05:17:13;8.53;;;4.00;;
2474;SDS011;1248;48.694;10.160;2023-07-31T05:19:40;4.60;;;3.80;;
2474;SDS011;1248;48.694;10.160;2023-07-31T05:22:07;5.78;;;3.70;;
2474;SDS011;1248;48.694;10.160;2023-07-31T05:24:34;7.50;;;3.60;;
2474;SDS011;1248;48.694;10.160;2023-07-31T05:27:03;7.03;;;3.97;;
2474;SDS011;1248;48.694;10.160;2023-07-31T05:29:30;4.83;;;3.73;;
2474;SDS011;1248;48.694;10.160;2023-07-31T05:31:57;6.90;;;4.07;;
2474;SDS011;1248;48.694;10.160;2023-07-31T05:34:25;5.00;;;3.60;;
2474;SDS011;1248;48.694;10.160;2023-07-31T05:36:52;5.70;;;3.37;;
2474;SDS011;1248;48.694;10.160;2023-07-31T05:39:19;11.43;;;4.00;;
2474;SDS011;1248;48.694;10.160;2023-07-31T05:41:46;5.67;;;3.47;;
2474;SDS011;1248;48.694;10.160;2023-07-31T05:44:15;3.50;;;2.47;;
2474;SDS011;1248;48.694;10.160;2023-07-31T05:46:42;10.40;;;4.10;;
2474;SDS011;1248;48.694;10.160;2023-07-31T05:49:09;6.83;;;3.70;;
2474;SDS011;1248;48.694;10.160;2023-07-31T05:51:36;6.80;;;3.60;;
2474;SDS011;1248;48.694;10.160;2023-07-31T05:54:03;3.23;;;2.90;;
2474;SDS011;1248;48.694;10.160;2023-07-31T05:56:30;3.20;;;2.90;;
2474;SDS011;1248;48.694;10.160;2023-07-31T05:58:59;5.13;;;3.47;;
2474;SDS011;1248;48.694;10.160;2023-07-31T06:01:27;8.23;;;3.00;;
2474;SDS011;1248;48.694;10.160;2023-07-31T06:03:54;5.63;;;2.80;;
2474;SDS011;1248;48.694;10.160;2023-07-31T06:06:21;4.13;;;2.77;;
2474;SDS011;1248;48.694;10.160;2023-07-31T06:08:48;8.43;;;3.00;;
2474;SDS011;1248;48.694;10.160;2023-07-31T06:11:15;7.90;;;2.67;;
2474;SDS011;1248;48.694;10.160;2023-07-31T06:13:42;5.90;;;3.27;;
2474;SDS011;1248;48.694;10.160;2023-07-31T06:16:10;3.93;;;3.00;;
2474;SDS011;1248;48.694;10.160;2023-07-31T06:18:38;4.20;;;3.10;;
2474;SDS011;1248;48.694;10.160;2023-07-31T06:21:05;7.67;;;3.10;;
2474;SDS011;1248;48.694;10.160;2023-07-31T06:23:32;6.10;;;3.23;;
2474;SDS011;1248;48.694;10.160;2023-07-31T06:26:00;4.77;;;2.90;;
2474;SDS011;1248;48.694;10.160;2023-07-31T06:28:27;4.47;;;3.33;;
2474;SDS011;1248;48.694;10.160;2023-07-31T06:30:54;7.60;;;3.33;;
2474;SDS011;1248;48.694;10.160;2023-07-31T06:33:21;6.00;;;2.83;;
2474;SDS011;1248;48.694;10.160;2023-07-31T06:35:50;7.33;;;2.20;;
2474;SDS011;1248;48.694;10.160;2023-07-31T06:38:18;2.57;;;2.20;;
2474;SDS011;1248;48.694;10.160;2023-07-31T06:40:45;7.40;;;3.47;;
2474;SDS011;1248;48.694;10.160;2023-07-31T06:43:12;3.57;;;2.50;;
2474;SDS011;1248;48.694;10.160;2023-07-31T06:45:39;4.87;;;2.77;;
2474;SDS011;1248;48.694;10.160;2023-07-31T06:48:07;6.67;;;3.07;;
2474;SDS011;1248;48.694;10.160;2023-07-31T06:50:34;5.53;;;2.67;;
2474;SDS011;1248;48.694;10.160;2023-07-31T06:53:02;6.47;;;3.03;;
2474;SDS011;1248;48.694;10.160;2023-07-31T06:55:29;3.40;;;2.17;;
2474;SDS011;1248;48.694;10.160;2023-07-31T06:57:57;4.20;;;2.40;;
2474;SDS011;1248;48.694;10.160;2023-07-31T07:00:24;4.40;;;2.63;;
2474;SDS011;1248;48.694;10.160;2023-07-31T07:02:51;3.27;;;2.33;;
2474;SDS011;1248;48.694;10.160;2023-07-31T07:05:18;4.50;;;2.77;;
2474;SDS011;1248;48.694;10.160;2023-07-31T07:07:45;3.80;;;2.30;;
2474;SDS011;1248;48.694;10.160;2023-07-31T07:10:14;3.10;;;1.87;;
2474;SDS011;1248;48.694;10.160;2023-07-31T07:12:41;2.87;;;1.73;;
2474;SDS011;1248;48.694;10.160;2023-07-31T07:15:08;2.80;;;1.93;;
2474;SDS011;1248;48.694;10.160;2023-07-31T07:17:35;5.60;;;2.20;;
2474;SDS011;1248;48.694;10.160;2023-07-31T07:20:03;3.57;;;2.27;;
2474;SDS011;1248;48.694;10.160;2023-07-31T07:22:30;6.50;;;2.30;;
2474;SDS011;1248;48.694;10.160;2023-07-31T07:24:57;4.80;;;2.57;;
2474;SDS011;1248;48.694;10.160;2023-07-31T07:27:26;4.23;;;2.23;;
2474;SDS011;1248;48.694;10.160;2023-07-31T07:29:53;3.63;;;2.20;;
2474;SDS011;1248;48.694;10.160;2023-07-31T07:32:20;3.67;;;1.93;;
2474;SDS011;1248;48.694;10.160;2023-07-31T07:34:48;2.03;;;1.83;;
2474;SDS011;1248;48.694;10.160;2023-07-31T07:37:15;4.80;;;2.30;;
2474;SDS011;1248;48.694;10.160;2023-07-31T07:39:42;7.30;;;2.10;;
2474;SDS011;1248;48.694;10.160;2023-07-31T07:42:09;9.20;;;2.40;;
2474;SDS011;1248;48.694;10.160;2023-07-31T07:44:37;5.13;;;2.40;;
2474;SDS011;1248;48.694;10.160;2023-07-31T07:47:05;3.73;;;2.30;;
2474;SDS011;1248;48.694;10.160;2023-07-31T07:49:32;4.00;;;2.20;;
2474;SDS011;1248;48.694;10.160;2023-07-31T07:52:00;4.40;;;2.20;;
2474;SDS011;1248;48.694;10.160;2023-07-31T07:54:27;5.87;;;1.83;;
2474;SDS011;1248;48.694;10.160;2023-07-31T07:56:54;4.47;;;2.07;;
2474;SDS011;1248;48.694;10.160;2023-07-31T07:59:21;4.20;;;2.33;;
2474;SDS011;1248;48.694;10.160;2023-07-31T08:01:49;3.67;;;1.83;;
2474;SDS011;1248;48.694;10.160;2023-07-31T08:04:16;4.33;;;1.73;;
2474;SDS011;1248;48.694;10.160;2023-07-31T08:06:43;8.53;;;2.10;;
2474;SDS011;1248;48.694;10.160;2023-07-31T08:09:10;5.30;;;2.03;;
2474;SDS011;1248;48.694;10.160;2023-07-31T08:11:37;4.67;;;2.53;;
2474;SDS011;1248;48.694;10.160;2023-07-31T08:14:04;3.97;;;2.00;;
2474;SDS011;1248;48.694;10.160;2023-07-31T08:16:31;4.23;;;1.80;;
2474;SDS011;1248;48.694;10.160;2023-07-31T08:19:00;4.43;;;1.93;;
2474;SDS011;1248;48.694;10.160;2023-07-31T08:21:27;3.77;;;2.17;;
2474;SDS011;1248;48.694;10.160;2023-07-31T08:23:54;4.80;;;2.10;;
2474;SDS011;1248;48.694;10.160;2023-07-31T08:26:21;5.97;;;2.27;;
2474;SDS011;1248;48.694;10.160;2023-07-31T08:28:48;4.73;;;2.40;;
2474;SDS011;1248;48.694;10.160;2023-07-31T08:31:15;3.73;;;1.73;;
2474;SDS011;1248;48.694;10.160;2023-07-31T08:33:43;4.77;;;1.70;;
2474;SDS011;1248;48.694;10.160;2023-07-31T08:36:12;7.43;;;2.90;;
2474;SDS011;1248;48.694;10.160;2023-07-31T08:38:39;5.20;;;2.53;;
2474;SDS011;1248;48.694;10.160;2023-07-31T08:41:06;5.10;;;1.90;;
2474;SDS011;1248;48.694;10.160;2023-07-31T08:43:33;6.47;;;2.70;;
2474;SDS011;1248;48.694;10.160;2023-07-31T08:46:02;7.20;;;2.50;;
2474;SDS011;1248;48.694;10.160;2023-07-31T08:48:29;3.63;;;2.23;;
2474;SDS011;1248;48.694;10.160;2023-07-31T08:50:58;5.23;;;2.50;;
2474;SDS011;1248;48.694;10.160;2023-07-31T08:53:26;7.37;;;2.60;;
2474;SDS011;1248;48.694;10.160;2023-07-31T08:55:53;5.77;;;2.27;;
2474;SDS011;1248;48.694;10.160;2023-07-31T08:58:21;3.67;;;2.87;;
2474;SDS011;1248;48.694;10.160;2023-07-31T09:00:49;4.63;;;2.50;;
2474;SDS011;1248;48.694;10.160;2023-07-31T09:03:17;11.77;;;3.13;;
2474;SDS011;1248;48.694;10.160;2023-07-31T09:05:46;6.53;;;2.20;;
2474;SDS011;1248;48.694;10.160;2023-07-31T09:08:14;5.27;;;1.87;;
2474;SDS011;1248;48.694;10.160;2023-07-31T09:10:46;3.77;;;1.80;;
2474;SDS011;1248;48.694;10.160;2023-07-31T09:13:15;4.93;;;2.53;;
2474;SDS011;1248;48.694;10.160;2023-07-31T09:15:43;8.60;;;2.50;;
2474;SDS011;1248;48.694;10.160;2023-07-31T09:18:11;6.60;;;2.07;;
2474;SDS011;1248;48.694;10.160;2023-07-31T09:20:39;7.40;;;2.40;;
2474;SDS011;1248;48.694;10.160;2023-07-31T09:23:07;6.50;;;2.20;;
2474;SDS011;1248;48.694;10.160;2023-07-31T09:25:35;9.83;;;2.60;;
2474;SDS011;1248;48.694;10.160;2023-07-31T09:28:04;3.10;;;2.13;;
2474;SDS011;1248;48.694;10.160;2023-07-31T09:30:44;4.30;;;2.17;;
2474;SDS011;1248;48.694;10.160;2023-07-31T09:33:12;4.03;;;2.53;;
2474;SDS011;1248;48.694;10.160;2023-07-31T09:35:40;4.70;;;2.60;;
2474;SDS011;1248;48.694;10.160;2023-07-31T09:38:08;5.23;;;2.70;;
2474;SDS011;1248;48.694;10.160;2023-07-31T09:40:37;9.07;;;2.27;;
2474;SDS011;1248;48.694;10.160;2023-07-31T09:43:07;10.30;;;3.47;;
2474;SDS011;1248;48.694;10.160;2023-07-31T09:45:37;6.47;;;2.47;;
2474;SDS011;1248;48.694;10.160;2023-07-31T09:48:06;6.20;;;2.70;;
2474;SDS011;1248;48.694;10.160;2023-07-31T09:50:36;7.47;;;2.47;;
2474;SDS011;1248;48.694;10.160;2023-07-31T09:53:04;4.53;;;1.93;;
2474;SDS011;1248;48.694;10.160;2023-07-31T09:55:31;8.17;;;2.10;;
2474;SDS011;1248;48.694;10.160;2023-07-31T09:57:58;8.10;;;2.70;;
2474;SDS011;1248;48.694;10.160;2023-07-31T10:00:26;6.20;;;2.60;;
2474;SDS011;1248;48.694;10.160;2023-07-31T10:02:54;3.90;;;2.10;;
2474;SDS011;1248;48.694;10.160;2023-07-31T10:05:21;3.20;;;2.03;;
2474;SDS011;1248;48.694;10.160;2023-07-31T10:07:51;3.33;;;2.23;;
2474;SDS011;1248;48.694;10.160;2023-07-31T10:10:19;6.43;;;2.30;;
2474;SDS011;1248;48.694;10.160;2023-07-31T10:12:48;6.50;;;2.27;;
2474;SDS011;1248;48.694;10.160;2023-07-31T10:15:15;6.00;;;2.20;;
2474;SDS011;1248;48.694;10.160;2023-07-31T10:17:43;3.90;;;2.40;;
2474;SDS011;1248;48.694;10.160;2023-07-31T10:20:11;5.27;;;2.20;;
2474;SDS011;1248;48.694;10.160;2023-07-31T10:22:38;2.83;;;1.83;;
2474;SDS011;1248;48.694;10.160;2023-07-31T10:25:06;3.80;;;2.17;;
2474;SDS011;1248;48.694;10.160;2023-07-31T10:27:34;5.63;;;2.23;;
2474;SDS011;1248;48.694;10.160;2023-07-31T10:30:02;5.17;;;2.17;;
2474;SDS011;1248;48.694;10.160;2023-07-31T10:32:30;4.17;;;1.97;;
2474;SDS011;1248;48.694;10.160;2023-07-31T10:34:59;5.90;;;2.63;;
2474;SDS011;1248;48.694;10.160;2023-07-31T10:37:28;7.20;;;2.20;;
2474;SDS011;1248;48.694;10.160;2023-07-31T10:40:00;6.03;;;2.33;;
2474;SDS011;1248;48.694;10.160;2023-07-31T10:42:28;5.50;;;2.50;;
2474;SDS011;1248;48.694;10.160;2023-07-31T10:44:57;5.40;;;1.97;;
2474;SDS011;1248;48.694;10.160;2023-07-31T10:47:25;2.90;;;1.80;;
2474;SDS011;1248;48.694;10.160;2023-07-31T10:49:52;4.60;;;2.50;;
2474;SDS011;1248;48.694;10.160;2023-07-31T10:52:20;10.13;;;2.57;;
2474;SDS011;1248;48.694;10.160;2023-07-31T10:57:44;4.53;;;2.80;;
2474;SDS011;1248;48.694;10.160;2023-07-31T11:00:17;3.17;;;2.10;;
2474;SDS011;1248;48.694;10.160;2023-07-31T11:02:55;4.67;;;2.20;;
2474;SDS011;1248;48.694;10.160;2023-07-31T11:05:31;3.97;;;1.90;;
2474;SDS011;1248;48.694;10.160;2023-07-31T11:08:12;4.20;;;2.23;;
2474;SDS011;1248;48.694;10.160;2023-07-31T11:10:40;5.27;;;2.37;;
2474;SDS011;1248;48.694;10.160;2023-07-31T11:13:08;6.47;;;1.77;;
2474;SDS011;1248;48.694;10.160;2023-07-31T11:15:35;2.27;;;1.93;;
2474;SDS011;1248;48.694;10.160;2023-07-31T11:18:02;5.10;;;2.03;;
2474;SDS011;1248;48.694;10.160;2023-07-31T11:20:31;6.73;;;1.87;;
2474;SDS011;1248;48.694;10.160;2023-07-31T11:22:59;3.70;;;2.17;;
2474;SDS011;1248;48.694;10.160;2023-07-31T11:25:29;3.43;;;2.13;;
2474;SDS011;1248;48.694;10.160;2023-07-31T11:27:57;6.00;;;2.60;;
2474;SDS011;1248;48.694;10.160;2023-07-31T11:30:24;5.37;;;2.53;;
2474;SDS011;1248;48.694;10.160;2023-07-31T11:32:51;7.67;;;2.40;;
2474;SDS011;1248;48.694;10.160;2023-07-31T11:35:18;2.87;;;2.30;;
2474;SDS011;1248;48.694;10.160;2023-07-31T11:37:45;5.20;;;2.23;;
2474;SDS011;1248;48.694;10.160;2023-07-31T11:40:12;3.57;;;2.10;;
2474;SDS011;1248;48.694;10.160;2023-07-31T11:42:41;2.13;;;1.47;;
2474;SDS011;1248;48.694;10.160;2023-07-31T11:45:08;4.13;;;2.23;;
2474;SDS011;1248;48.694;10.160;2023-07-31T11:47:36;5.00;;;1.60;;
2474;SDS011;1248;48.694;10.160;2023-07-31T11:50:05;3.60;;;2.07;;
2474;SDS011;1248;48.694;10.160;2023-07-31T11:52:34;5.67;;;2.20;;
2474;SDS011;1248;48.694;10.160;2023-07-31T11:55:04;4.80;;;2.30;;
2474;SDS011;1248;48.694;10.160;2023-07-31T11:57:32;4.83;;;2.30;;
2474;SDS011;1248;48.694;10.160;2023-07-31T12:00:01;6.67;;;2.70;;
2474;SDS011;1248;48.694;10.160;2023-07-31T12:02:29;5.73;;;2.20;;
2474;SDS011;1248;48.694;10.160;2023-07-31T12:04:56;5.70;;;2.63;;
2474;SDS011;1248;48.694;10.160;2023-07-31T12:07:23;4.67;;;2.27;;
2474;SDS011;1248;48.694;10.160;2023-07-31T12:09:51;4.80;;;2.50;;
2474;SDS011;1248;48.694;10.160;2023-07-31T12:12:19;4.33;;;2.57;;
2474;SDS011;1248;48.694;10.160;2023-07-31T12:14:46;4.43;;;2.47;;
2474;SDS011;1248;48.694;10.160;2023-07-31T12:17:15;4.70;;;2.30;;
2474;SDS011;1248;48.694;10.160;2023-07-31T12:19:43;7.07;;;2.57;;
2474;SDS011;1248;48.694;10.160;2023-07-31T12:22:13;5.00;;;2.83;;
2474;SDS011;1248;48.694;10.160;2023-07-31T12:24:41;5.40;;;2.60;;
2474;SDS011;1248;48.694;10.160;2023-07-31T12:27:10;7.00;;;2.20;;
2474;SDS011;1248;48.694;10.160;2023-07-31T12:29:38;3.80;;;1.90;;
2474;SDS011;1248;48.694;10.160;2023-07-31T12:32:19;4.57;;;2.23;;
2474;SDS011;1248;48.694;10.160;2023-07-31T12:34:47;6.90;;;2.10;;
2474;SDS011;1248;48.694;10.160;2023-07-31T12:37:14;7.93;;;2.20;;
2474;SDS011;1248;48.694;10.160;2023-07-31T12:39:41;5.53;;;2.03;;
2474;SDS011;1248;48.694;10.160;2023-07-31T12:42:08;6.00;;;2.63;;
2474;SDS011;1248;48.694;10.160;2023-07-31T12:44:35;4.67;;;2.50;;
2474;SDS011;1248;48.694;10.160;2023-07-31T12:47:02;8.57;;;2.93;;
2474;SDS011;1248;48.694;10.160;2023-07-31T12:49:31;5.13;;;2.60;;
2474;SDS011;1248;48.694;10.160;2023-07-31T12:51:58;3.43;;;1.90;;
2474;SDS011;1248;48.694;10.160;2023-07-31T12:54:25;4.53;;;2.03;;
2474;SDS011;1248;48.694;10.160;2023-07-31T12:56:52;5.83;;;2.30;;
2474;SDS011;1248;48.694;10.160;2023-07-31T12:59:20;6.30;;;2.77;;
2474;SDS011;1248;48.694;10.160;2023-07-31T13:01:47;6.83;;;2.10;;
2474;SDS011;1248;48.694;10.160;2023-07-31T13:04:23;5.73;;;2.80;;
2474;SDS011;1248;48.694;10.160;2023-07-31T13:06:52;11.30;;;3.17;;
2474;SDS011;1248;48.694;10.160;2023-07-31T13:09:19;5.50;;;2.47;;
2474;SDS011;1248;48.694;10.160;2023-07-31T13:11:46;5.53;;;2.67;;
2474;SDS011;1248;48.694;10.160;2023-07-31T13:14:13;7.23;;;2.67;;
2474;SDS011;1248;48.694;10.160;2023-07-31T13:16:40;5.40;;;2.50;;
2474;SDS011;1248;48.694;10.160;2023-07-31T13:19:07;7.07;;;2.97;;
2474;SDS011;1248;48.694;10.160;2023-07-31T13:21:34;4.03;;;2.30;;
2474;SDS011;1248;48.694;10.160;2023-07-31T13:26:31;3.73;;;2.03;;
2474;SDS011;1248;48.694;10.160;2023-07-31T13:28:59;7.33;;;3.20;;
2474;SDS011;1248;48.694;10.160;2023-07-31T13:31:26;5.47;;;2.85;;
2474;SDS011;1248;48.694;10.160;2023-07-31T13:33:53;5.17;;;2.57;;
2474;SDS011;1248;48.694;10.160;2023-07-31T13:36:20;3.20;;;2.23;;
2474;SDS011;1248;48.694;10.160;2023-07-31T13:38:47;5.07;;;3.07;;
2474;SDS011;1248;48.694;10.160;2023-07-31T13:41:16;4.40;;;2.77;;
2474;SDS011;1248;48.694;10.160;2023-07-31T13:43:43;4.50;;;3.30;;
2474;SDS011;1248;48.694;10.160;2023-07-31T13:46:10;4.40;;;2.53;;
2474;SDS011;1248;48.694;10.160;2023-07-31T13:48:37;4.40;;;2.47;;
2474;SDS011;1248;48.694;10.160;2023-07-31T13:51:04;9.90;;;2.67;;
2474;SDS011;1248;48.694;10.160;2023-07-31T13:53:31;4.07;;;2.60;;
2474;SDS011;1248;48.694;10.160;2023-07-31T13:55:58;7.23;;;2.73;;
2474;SDS011;1248;48.694;10.160;2023-07-31T13:58:27;5.40;;;2.83;;
2474;SDS011;1248;48.694;10.160;2023-07-31T14:00:54;3.67;;;2.50;;
2474;SDS011;1248;48.694;10.160;2023-07-31T14:03:21;3.67;;;2.30;;
2474;SDS011;1248;48.694;10.160;2023-07-31T14:05:48;6.30;;;3.20;;
2474;SDS011;1248;48.694;10.160;2023-07-31T14:08:15;4.80;;;2.63;;
2474;SDS011;1248;48.694;10.160;2023-07-31T14:10:42;3.60;;;2.60;;
2474;SDS011;1248;48.694;10.160;2023-07-31T14:13:09;4.10;;;2.50;;
2474;SDS011;1248;48.694;10.160;2023-07-31T14:15:38;6.80;;;3.40;;
2474;SDS011;1248;48.694;10.160;2023-07-31T14:18:06;4.43;;;2.60;;
2474;SDS011;1248;48.694;10.160;2023-07-31T14:20:33;3.90;;;2.53;;
2474;SDS011;1248;48.694;10.160;2023-07-31T14:23:00;6.00;;;2.90;;
2474;SDS011;1248;48.694;10.160;2023-07-31T14:25:27;4.20;;;2.80;;
2474;SDS011;1248;48.694;10.160;2023-07-31T14:27:54;3.53;;;2.67;;
2474;SDS011;1248;48.694;10.160;2023-07-31T14:30:21;5.73;;;3.10;;
2474;SDS011;1248;48.694;10.160;2023-07-31T14:32:50;4.53;;;2.40;;
2474;SDS011;1248;48.694;10.160;2023-07-31T14:35:17;4.67;;;3.07;;
2474;SDS011;1248;48.694;10.160;2023-07-31T14:37:44;5.23;;;2.80;;
2474;SDS011;1248;48.694;10.160;2023-07-31T14:40:12;4.60;;;2.50;;
2474;SDS011;1248;48.694;10.160;2023-07-31T14:42:40;5.63;;;3.00;;
2474;SDS011;1248;48.694;10.160;2023-07-31T14:45:07;5.27;;;3.17;;
2474;SDS011;1248;48.694;10.160;2023-07-31T14:47:35;6.60;;;3.40;;
2474;SDS011;1248;48.694;10.160;2023-07-31T14:50:04;3.90;;;2.57;;
2474;SDS011;1248;48.694;10.160;2023-07-31T14:52:32;6.37;;;3.97;;
2474;SDS011;1248;48.694;10.160;2023-07-31T14:54:59;5.47;;;2.50;;
2474;SDS011;1248;48.694;10.160;2023-07-31T14:57:26;4.17;;;2.60;;
2474;SDS011;1248;48.694;10.160;2023-07-31T14:59:53;4.17;;;2.63;;
2474;SDS011;1248;48.694;10.160;2023-07-31T15:02:20;4.97;;;2.80;;
2474;SDS011;1248;48.694;10.160;2023-07-31T15:04:47;4.47;;;2.40;;
2474;SDS011;1248;48.694;10.160;2023-07-31T15:07:16;8.30;;;2.97;;
2474;SDS011;1248;48.694;10.160;2023-07-31T15:09:43;3.70;;;2.40;;